首页
METAR-TAF:

METAR-TAF

机场 :

利伯维尔, 加蓬

利伯維爾國際機場

纬度: 00-27N, 经度: 009-25E, 海拔: 12米

当前天气观测

该预报发布于24分钟前的06:30 UTC
风速5节,风向东南
温度 23°C
湿度 94%
气压 1013 hPa
能見度: 8000
散云层高于1000英尺
少量云层高于1600英尺, 积雨云.
多云层高于3000英尺
雷暴

METAR: FOOL 250630Z 13005KT 8000 TS SCT010 FEW016CB BKN030 23/22 Q1013 BECMG NSW

时间: 07:54 (06:54 UTC)

预报

该预报发布于1小时和54分钟前的05:00 UTC
预报有效从25日的 06点(UTC)到 26日的 12点(UTC)
风速10节,风向
能見度: 7000
散云层高于1000英尺
少量云层高于2000英尺, 积雨云.
多云层高于3000英尺
雷暴, 小雨
短暂存在
从 25日的 07点(UTC)到 25日的 10点(UTC)
能見度: 3000
多云层高于1000英尺
少量云层高于2000英尺, 积雨云.
阴天层高于2600英尺
雷暴, 雨
从 25日的 1100点(UTC)
风速8节,风向西南
能见度10公里或以上
散云层高于1200英尺
少量云层高于2000英尺, 积雨云.
几率 40% :
短暂存在
从 25日的 21点(UTC)到 26日的 03点(UTC)
能見度: 3000
多云层高于1000英尺
少量云层高于2000英尺, 积雨云.
阴天层高于2600英尺
雷暴, 雨

TAF: FOOL 250500Z 2506/2612 08010KT 7000 -TSRA SCT010 FEW020CB BKN030 TEMPO 2507/2510 3000 TSRA BKN010 FEW020CB OVC026 FM251100 22008KT 9999 SCT012 FEW020CB PROB40 TEMPO 2521/2603 3000 TSRA BKN010 FEW020CB OVC026

超过4000个机场的气象观测和天气预报(METAR&TAF报告)。

可查询的气象台以黄色和红色小点在地图上表示。

将鼠标移到小点上方,可查看气象台名称。

然后点击查看天气观测和预报。

如需切换地图:点击带黑十字的绿色按钮放大地图;点击带横线的绿色按钮缩小地图;或者点击绿色箭头查看邻近地区的地图。


METAR-TAF: